Riverlea, Ohio
Current Conditions -  °F | °C
As of 8:53 PM on Friday 24 Oct 2014 (Local Time) from KOSU Reporting Station
Haze Haze  
Wind Chill: 51°   Ceiling: Unl
Heat Index: 51°   Visibility: 4mi
Dew Point: 38°   Wind: 0mph
Humidity: 61%   Direction: NA
Pressure: 30.03"   Gusts: NA
Location:  40.0994°N, 83.0166°W
Report Text: KOSU 250053Z 00000KT 4SM HZ CLR 11/03 A3003 RMK AO2 SLP172 T01060033
Loading
Personal Weather Stations






























Interactive Weather Map
Tropical Storm Tracking
New forecast layout! Learn more

10-Day Weather Forecast

Advertisements
Track Severe Weather on mobile